weather station
Area: 7197 km2
The highest point: Čupec (819 m.s.l.)
Total stations: 39
Stations online: 36
Stations offline: 3
Current weather
-1°C

Meteorological map - weather stations in Jihomoravský

. The meteorological maps show weather information from WARIO weather stations

Weather stations Jihomoravský

 UpdatesNameStatusTemperatureHumidityWind speedWind direction
21.1.2020 13:47Archlebov2.2 °C75.5 %1.2 m/s W
21.1.2020 13:47Boskovice-1.9 °C80.8 %1.9 m/s S
21.1.2020 13:47Brno - Líšeň-0.4 °C83.5 %1.0 m/s NW
21.1.2020 13:47Brno - Vinohrady-1.1 °C87.8 %1.1 m/s NW
20.1.2020 16:05Brno - Komín2.6 °C82.4 %0.0 m/s NW
21.1.2020 13:47Brno - Střed0.2 °C81.7 %1.3 m/s W
21.1.2020 13:47Brno - Kníničky0.0 °C86.6 %0.0 m/s W
21.1.2020 13:47Býkovice-1.8 °C88.2 %1.9 m/s E
21.1.2020 13:47Bítov-1.2 °C91.0 %0.0 m/s N
21.1.2020 13:46Diváky2.2 °C70.8 %0.4 m/s SW
21.1.2020 13:47Dobšice2.1 °C75.0 %1.7 m/s S
21.1.2020 13:47Drnholec0.7 °C86.7 %1.1 m/s E
21.1.2020 13:47Lelekovice-1.8 °C97.7 %1.1 m/s SW
21.1.2020 13:47Holubice0.0 °C81.3 %1.6 m/s SW
21.1.2020 13:47Moravany2.2 °C67.4 %1.6 m/s NE
21.1.2020 13:47Brno - Královo Pole-1.1 °C84.3 %1.6 m/s SW
21.1.2020 13:47Lomnice-0.8 °C89.7 %1.1 m/s E
21.1.2020 13:47Višňové0.3 °C89.6 %0.0 m/s W
21.1.2020 13:46Lelekovice-1.8 °C97.0 %1.5 m/s S
21.1.2020 13:47Dolní Dubňany-0.1 °C79.3 %1.4 m/s S
21.1.2020 13:47Bzenec5.1 °C70.5 %0.4 m/s N
21.1.2020 13:47Svatobořice2.4 °C77.4 %0.0 m/s E
21.1.2020 13:47Moravské Bránice-0.2 °C78.6 %1.7 m/s NE
21.1.2020 13:47Pohořelice °C %0.0 m/s W
21.1.2020 13:46Předklášteří-1.6 °C82.5 %1.1 m/s E
21.1.2020 13:47Brno - Přízřenice0.1 °C82.0 %1.6 m/s SE
5.1.2020 12:44Rousínov °C %4.3 m/s E
21.1.2020 13:47Senorady-1.0 °C93.8 %1.1 m/s SW
21.1.2020 13:47Skalice u Znojma1.7 °C90.0 %0.0 m/s SE
21.1.2020 13:47Šlapanice0.5 °C83.8 %0.0 m/s NE
21.1.2020 13:47Brno - Trnitá0.0 °C100.0 %0.0 m/s W
21.1.2020 13:47Kuřim-1.2 °C93.3 %0.0 m/s S
21.1.2020 13:47Strážnice3.6 °C75.6 %0.0 m/s SE
21.1.2020 13:46Strážnice GUMEX2.8 °C76.3 %0.0 m/s N
21.1.2020 13:47Velatice-40.0 °C %1.2 m/s W
21.1.2020 13:47Veselí nad Moravou2.9 °C76.7 %0.9 m/s SE
20.1.2020 12:57Veselí nad Moravou3.6 °C78.2 %0.0 m/s N
21.1.2020 13:47Rájec-Jestřebí-2.0 °C96.7 %0.7 m/s NW
21.1.2020 13:47Brno - Královo Pole-0.1 °C82.1 %1.3 m/s W
Email notifications
Enter your email address to subscribe to notifications about news at warioweather.com. Your email address will not be used for any purpose other than sending these emails and will not be provided to any third party. The subscription can be ended at any time.
All data are only indicative. The portal administrator has no responsibility for potentially incorrect data and related consequences. Publishing or further sharing of content from www.warioweather.com is only allowed with written consent from WANET s.r.o.